Terminal Aerodrome Forecast
Issued by NWS Charleston, WV

Home | Current Version | Previous Version | Text Only | Print | Product List | Glossary On
Versions: 1 2 3 4 5 6 7 8 9 10 11 12 13 14 15 16 17 18 19 20 21 22 23 24 25 26
000
FTUS41 KRLX 292323
TAFCRW
TAF
KCRW 292323Z 3000/3024 17004KT P6SM VCSH BKN045
     FM300200 VRB03KT P6SM BKN100
     FM300900 00000KT 5SM BR SCT080
     FM301200 00000KT 6SM BR SCT080
     FM301400 20005KT P6SM BKN045
     FM301800 20006KT P6SM VCTS BKN045CB=

USA.gov is the U.S. government's official web portal to all federal, state and local government web resources and services.